Terminal Aerodrome Forecast
Issued by NWS

Home | Current Version | Previous Version | Text Only | Print | Product List | Glossary On
Versions: 1 2 3 4 5 6 7 8 9 10 11 12 13 14 15 16 17 18 19 20 21 22 23 24 25 26 27 28 29 30 31 32 33 34
000
FTUS43 KDDC 211700
TAFGCK
TAF
KGCK 211720Z 2118/2218 21012G17KT P6SM FEW200
     FM220200 18011KT P6SM FEW090 BKN250
     FM221400 20013KT P6SM SKC=

USA.gov is the U.S. government's official web portal to all federal, state and local government web resources and services.